| time (UTC) | temp F | wind direction | speed MPH | gust MPH | rain 1hr in | rain 24hr in | rain mn in | humidity % | barometer mb |
| 20260507213104 | 63 | 247 | 1.0 | 16.0 | 0.00 | 0.13 | 0.09 | 47 | 1013.6 |
| 20260507211606 | 62 | 320 | 9.0 | 16.0 | 0.00 | 0.13 | 0.09 | 49 | 1013.7 |
| 20260507210054 | 61 | 311 | 5.0 | 14.0 | 0.00 | 0.13 | 0.09 | 51 | 1013.7 |
| 20260507204558 | 61 | 352 | 7.0 | 14.0 | 0.00 | 0.13 | 0.09 | 53 | 1013.7 |
| 20260507203051 | 60 | 296 | 5.0 | 14.0 | 0.00 | 0.13 | 0.09 | 52 | 1013.9 |
| 20260507201550 | 60 | 308 | 5.0 | 12.0 | 0.00 | 0.13 | 0.09 | 54 | 1014.0 |
| 20260507200047 | 59 | 225 | 2.0 | 7.0 | 0.00 | 0.13 | 0.09 | 56 | 1013.9 |
| 20260507194619 | 59 | 301 | 4.0 | 12.0 | 0.00 | 0.13 | 0.09 | 54 | 1014.0 |
| 20260507193046 | 59 | 289 | 5.0 | 10.0 | 0.00 | 0.13 | 0.09 | 59 | 1014.3 |
| 20260507191553 | 57 | 287 | 1.0 | 7.0 | 0.00 | 0.13 | 0.09 | 59 | 1014.2 |
| 20260507190047 | 57 | 252 | 2.0 | 7.0 | 0.00 | 0.13 | 0.09 | 59 | 1014.4 |
| 20260507184602 | 56 | 0 | 1.0 | 8.0 | 0.00 | 0.13 | 0.09 | 60 | 1014.4 |
| 20260507183048 | 57 | 260 | 2.0 | 11.0 | 0.00 | 0.13 | 0.09 | 58 | 1014.6 |
| 20260507181547 | 56 | 246 | 2.0 | 12.0 | 0.00 | 0.13 | 0.09 | 64 | 1014.7 |
| 20260507180057 | 56 | 267 | 0.0 | 6.0 | 0.00 | 0.13 | 0.09 | 67 | 1014.7 |
| 20260507174550 | 55 | 307 | 1.0 | 6.0 | 0.00 | 0.13 | 0.09 | 71 | 1015.0 |
| 20260507173049 | 53 | 307 | 3.0 | 6.0 | 0.00 | 0.13 | 0.09 | 72 | 1015.0 |
| 20260507171551 | 52 | 0 | 0.0 | 3.0 | 0.00 | 0.13 | 0.09 | 80 | 1015.2 |
| 20260507170046 | 52 | 348 | 0.0 | 3.0 | 0.00 | 0.13 | 0.09 | 79 | 1015.0 |
| 20260507164549 | 52 | 24 | 0.0 | 5.0 | 0.00 | 0.13 | 0.09 | 80 | 1014.9 |
| 20260507163050 | 52 | 0 | 1.0 | 3.0 | 0.00 | 0.13 | 0.09 | 83 | 1014.7 |
| 20260507161550 | 52 | 136 | 2.0 | 4.0 | 0.00 | 0.13 | 0.09 | 81 | 1014.6 |
| 20260507160056 | 51 | 0 | 1.0 | 3.0 | 0.00 | 0.13 | 0.09 | 80 | 1014.7 |
| 20260507154557 | 51 | 146 | 0.0 | 2.0 | 0.00 | 0.13 | 0.09 | 91 | 1014.7 |
| 20260507153047 | 50 | 0 | 0.0 | 4.0 | 0.00 | 0.13 | 0.09 | 93 | 1014.7 |
| 20260507151554 | 49 | 0 | 0.0 | 3.0 | 0.00 | 0.13 | 0.09 | 93 | 1014.6 |
| 20260507150057 | 48 | 146 | 0.0 | 3.0 | 0.01 | 0.13 | 0.09 | 93 | 1014.5 |
| 20260507144551 | 48 | 0 | 0.0 | 2.0 | 0.01 | 0.13 | 0.09 | 94 | 1014.3 |
| 20260507143101 | 48 | 141 | 1.0 | 4.0 | 0.01 | 0.13 | 0.09 | 95 | 1014.2 |
| 20260507141552 | 47 | 137 | 3.0 | 7.0 | 0.01 | 0.13 | 0.09 | 96 | 1014.2 |
| 20260507140057 | 45 | 168 | 4.0 | 8.0 | 0.00 | 0.12 | 0.08 | 96 | 1014.2 |
| 20260507134558 | 45 | 180 | 2.0 | 12.0 | 0.00 | 0.12 | 0.08 | 96 | 1014.3 |
| 20260507133100 | 45 | 0 | 2.0 | 5.0 | 0.00 | 0.12 | 0.08 | 96 | 1013.9 |
| 20260507131608 | 45 | 0 | 1.0 | 4.0 | 0.00 | 0.12 | 0.08 | 96 | 1013.8 |
| 20260507130049 | 44 | 93 | 2.0 | 7.0 | 0.00 | 0.12 | 0.08 | 97 | 1013.9 |
| 20260507124551 | 44 | 247 | 2.0 | 4.0 | 0.00 | 0.12 | 0.08 | 96 | 1014.0 |
| 20260507123051 | 44 | 333 | 4.0 | 7.0 | 0.00 | 0.12 | 0.08 | 96 | 1013.9 |
| 20260507121554 | 44 | 148 | 3.0 | 6.0 | 0.00 | 0.12 | 0.08 | 96 | 1013.4 |
| 20260507120051 | 43 | 148 | 0.0 | 3.0 | 0.00 | 0.12 | 0.08 | 96 | 1013.4 |
| 20260507114549 | 44 | 148 | 2.0 | 6.0 | 0.00 | 0.12 | 0.08 | 96 | 1013.5 |
| 20260507113048 | 44 | 196 | 0.0 | 3.0 | 0.00 | 0.12 | 0.08 | 95 | 1013.5 |
| 20260507111547 | 44 | 198 | 2.0 | 5.0 | 0.00 | 0.12 | 0.08 | 95 | 1013.1 |
| 20260507110050 | 44 | 0 | 1.0 | 5.0 | 0.00 | 0.12 | 0.08 | 95 | 1013.2 |
| 20260507104548 | 44 | 171 | 1.0 | 4.0 | 0.00 | 0.12 | 0.08 | 94 | 1013.2 |
| 20260507103052 | 45 | 177 | 0.0 | 4.0 | 0.01 | 0.12 | 0.08 | 93 | 1013.2 |
| 20260507101554 | 45 | 177 | 2.0 | 7.0 | 0.02 | 0.12 | 0.08 | 93 | 1013.1 |
| 20260507100053 | 46 | 175 | 4.0 | 9.0 | 0.03 | 0.12 | 0.08 | 94 | 1013.1 |
| 20260507094551 | 46 | 144 | 1.0 | 7.0 | 0.06 | 0.12 | 0.08 | 93 | 1013.4 |
| 20260507093055 | 46 | 145 | 3.0 | 8.0 | 0.07 | 0.11 | 0.07 | 93 | 1013.4 |
| 20260507091552 | 46 | 146 | 1.0 | 8.0 | 0.06 | 0.10 | 0.06 | 91 | 1013.9 |
| 20260507090054 | 47 | 141 | 3.0 | 10.0 | 0.05 | 0.09 | 0.05 | 90 | 1013.4 |
| 20260507084554 | 47 | 355 | 3.0 | 12.0 | 0.02 | 0.06 | 0.02 | 87 | 1014.4 |
| 20260507083050 | 47 | 99 | 0.0 | 3.0 | 0.00 | 0.04 | 0.00 | 83 | 1013.3 |
| 20260507081550 | 48 | 0 | 1.0 | 6.0 | 0.00 | 0.04 | 0.00 | 80 | 1012.7 |
| 20260507080113 | 47 | 194 | 0.0 | 3.0 | 0.00 | 0.04 | 0.00 | 79 | 1012.4 |
| 20260507074554 | 49 | 0 | 0.0 | 5.0 | 0.00 | 0.04 | 0.00 | 77 | 1012.0 |
| 20260507073050 | 49 | 169 | 3.0 | 8.0 | 0.00 | 0.04 | 0.00 | 75 | 1011.9 |
| 20260507071607 | 46 | 140 | 4.0 | 7.0 | 0.00 | 0.04 | 0.00 | 86 | 1011.8 |
| 20260507070055 | 46 | 171 | 3.0 | 7.0 | 0.00 | 0.04 | 0.00 | 87 | 1011.8 |
| 20260507064552 | 47 | 163 | 2.0 | 6.0 | 0.00 | 0.04 | 0.00 | 87 | 1011.9 |
| 20260507063052 | 47 | 162 | 0.0 | 6.0 | 0.00 | 0.04 | 0.00 | 87 | 1011.9 |
| 20260507061556 | 48 | 149 | 2.0 | 5.0 | 0.00 | 0.04 | 0.00 | 88 | 1011.8 |
| 20260507060051 | 48 | 146 | 2.0 | 8.0 | 0.01 | 0.04 | 0.00 | 86 | 1011.8 |
| 20260507054554 | 49 | 148 | 4.0 | 10.0 | 0.01 | 0.04 | 0.04 | 87 | 1011.9 |
| 20260507053117 | 49 | 153 | 4.0 | 7.0 | 0.01 | 0.04 | 0.04 | 87 | 1012.1 |
| 20260507051601 | 49 | 182 | 4.0 | 8.0 | 0.02 | 0.04 | 0.04 | 87 | 1012.3 |
| 20260507050054 | 50 | 120 | 2.0 | 7.0 | 0.01 | 0.03 | 0.03 | 83 | 1012.4 |
| 20260507044557 | 50 | 154 | 1.0 | 7.0 | 0.02 | 0.03 | 0.03 | 82 | 1012.7 |
| 20260507043054 | 50 | 130 | 3.0 | 7.0 | 0.03 | 0.03 | 0.03 | 84 | 1012.5 |
| 20260507041557 | 50 | 148 | 2.0 | 7.0 | 0.02 | 0.02 | 0.02 | 85 | 1012.7 |
| 20260507040051 | 52 | 129 | 0.0 | 6.0 | 0.02 | 0.02 | 0.02 | 75 | 1012.9 |
| 20260507034556 | 56 | 119 | 2.0 | 20.0 | 0.01 | 0.01 | 0.01 | 61 | 1012.7 |
| 20260507033055 | 58 | 275 | 4.0 | 7.0 | 0.00 | 0.00 | 0.00 | 54 | 1012.7 |
| 20260507031600 | 60 | 193 | 1.0 | 10.0 | 0.00 | 0.00 | 0.00 | 45 | 1011.5 |
| 20260507030057 | 60 | 142 | 2.0 | 12.0 | 0.00 | 0.00 | 0.00 | 44 | 1011.4 |
| 20260507024603 | 61 | 250 | 5.0 | 15.0 | 0.00 | 0.00 | 0.00 | 44 | 1011.4 |
| 20260507023059 | 61 | 263 | 3.0 | 13.0 | 0.00 | 0.00 | 0.00 | 44 | 1011.4 |
| 20260507021555 | 62 | 0 | 1.0 | 11.0 | 0.00 | 0.00 | 0.00 | 44 | 1011.4 |
| 20260507020053 | 62 | 269 | 3.0 | 11.0 | 0.00 | 0.00 | 0.00 | 43 | 1011.4 |
| 20260507014602 | 63 | 275 | 1.0 | 6.0 | 0.00 | 0.00 | 0.00 | 41 | 1011.5 |
| 20260507013053 | 63 | 306 | 2.0 | 5.0 | 0.00 | 0.00 | 0.00 | 39 | 1011.4 |
| 20260507011613 | 64 | 292 | 5.0 | 11.0 | 0.00 | 0.00 | 0.00 | 38 | 1011.4 |
| 20260507010059 | 64 | 271 | 2.0 | 10.0 | 0.00 | 0.00 | 0.00 | 39 | 1011.6 |
| 20260507004546 | 64 | 336 | 3.0 | 12.0 | 0.00 | 0.00 | 0.00 | 37 | 1011.8 |
| 20260507003049 | 65 | 325 | 3.0 | 14.0 | 0.00 | 0.00 | 0.00 | 36 | 1011.9 |
| 20260507001552 | 65 | 300 | 4.0 | 10.0 | 0.00 | 0.00 | 0.00 | 36 | 1011.9 |
| 20260507000051 | 65 | 0 | 5.0 | 13.0 | 0.00 | 0.00 | 0.00 | 37 | 1011.8 |
| 20260506234550 | 66 | 319 | 7.0 | 16.0 | 0.00 | 0.00 | 0.00 | 35 | 1011.8 |
| 20260506233052 | 67 | 298 | 8.0 | 21.0 | 0.00 | 0.00 | 0.00 | 36 | 1011.8 |
| 20260506231549 | 66 | 316 | 5.0 | 32.0 | 0.00 | 0.00 | 0.00 | 35 | 1011.6 |
| 20260506230046 | 68 | 306 | 5.0 | 19.0 | 0.00 | 0.00 | 0.00 | 33 | 1011.6 |
| 20260506224549 | 67 | 319 | 11.0 | 21.0 | 0.00 | 0.00 | 0.00 | 32 | 1011.6 |
| 20260506223050 | 67 | 269 | 8.0 | 17.0 | 0.00 | 0.00 | 0.00 | 35 | 1011.8 |
| 20260506221559 | 67 | 227 | 6.0 | 19.0 | 0.00 | 0.00 | 0.00 | 35 | 1011.8 |
| 20260506220049 | 66 | 236 | 7.0 | 24.0 | 0.00 | 0.00 | 0.00 | 36 | 1012.2 |
| 20260506214600 | 65 | 260 | 6.0 | 20.0 | 0.00 | 0.00 | 0.00 | 35 | 1012.4 |